createdAt,value
2022-10-10T00:00:31.327Z,9.54
2022-10-10T00:05:35.988Z,9.48
2022-10-10T00:10:39.004Z,9.39
2022-10-10T00:15:45.657Z,9.37
2022-10-10T00:20:53.352Z,9.33
2022-10-10T00:25:55.992Z,9.23
2022-10-10T00:30:58.766Z,9.05
2022-10-10T00:36:02.765Z,8.86
2022-10-10T00:41:05.868Z,8.73
2022-10-10T00:46:08.804Z,8.62
2022-10-10T00:51:14.770Z,8.58
2022-10-10T00:56:19.283Z,8.59
2022-10-10T01:01:22.117Z,8.68
2022-10-10T01:06:26.201Z,8.67
2022-10-10T01:11:46.277Z,8.64
2022-10-10T01:16:55.435Z,8.55
2022-10-10T01:22:07.622Z,8.52
2022-10-10T01:27:31.447Z,8.51
2022-10-10T01:32:40.921Z,8.57
2022-10-10T01:37:50.112Z,8.58
2022-10-10T01:42:56.083Z,8.58
2022-10-10T01:48:02.216Z,8.58
2022-10-10T01:53:15.509Z,8.59
2022-10-10T01:58:28.482Z,8.56
2022-10-10T02:03:37.771Z,8.60
2022-10-10T02:08:43.117Z,8.68
2022-10-10T02:13:48.723Z,8.70
2022-10-10T02:18:53.301Z,8.73
2022-10-10T02:23:57.649Z,8.71
2022-10-10T02:29:03.553Z,8.73
2022-10-10T02:34:11.321Z,8.71
2022-10-10T02:39:14.321Z,8.66
2022-10-10T02:44:17.059Z,8.60
2022-10-10T02:49:25.635Z,8.58
2022-10-10T02:54:28.539Z,8.56
2022-10-10T02:59:31.207Z,8.56
2022-10-10T03:04:35.926Z,8.51
2022-10-10T03:09:38.538Z,8.33
2022-10-10T03:14:41.371Z,8.33
2022-10-10T03:19:45.425Z,8.37
2022-10-10T03:24:48.044Z,8.37
2022-10-10T03:29:50.682Z,8.27
2022-10-10T03:34:54.691Z,8.16
2022-10-10T03:39:57.291Z,8.13
2022-10-10T03:44:59.913Z,8.19
2022-10-10T03:50:04.113Z,8.30
2022-10-10T03:55:07.505Z,8.31
2022-10-10T04:00:11.353Z,8.28
2022-10-10T04:05:15.363Z,8.21
2022-10-10T04:10:18.388Z,8.17
2022-10-10T04:15:21.079Z,8.24
2022-10-10T04:20:25.364Z,8.21
2022-10-10T04:25:29.350Z,8.19
2022-10-10T04:30:34.033Z,8.22
2022-10-10T04:35:38.133Z,8.17
2022-10-10T04:40:40.759Z,8.16
2022-10-10T04:45:43.402Z,8.08
2022-10-10T04:50:52.482Z,8.06
2022-10-10T04:55:55.228Z,7.97
2022-10-10T05:00:57.879Z,7.85
2022-10-10T05:06:01.851Z,7.90
2022-10-10T05:11:04.486Z,7.96
2022-10-10T05:16:07.550Z,7.98
2022-10-10T05:21:11.969Z,7.92
2022-10-10T05:26:15.004Z,7.96
2022-10-10T05:31:17.698Z,7.90
2022-10-10T05:36:21.753Z,7.81
2022-10-10T05:41:24.435Z,7.81
2022-10-10T05:46:27.494Z,7.76
2022-10-10T05:51:31.511Z,7.80
2022-10-10T05:56:34.119Z,7.79
2022-10-10T06:01:37.402Z,7.83
2022-10-10T06:06:42.186Z,7.81
2022-10-10T06:11:44.860Z,7.95
2022-10-10T06:16:47.582Z,8.06
2022-10-10T06:21:51.772Z,8.16
2022-10-10T06:26:54.368Z,8.22
2022-10-10T06:31:56.995Z,8.16
2022-10-10T06:37:01.042Z,8.26
2022-10-10T06:42:03.665Z,8.29
2022-10-10T06:47:06.532Z,8.34
2022-10-10T06:52:10.627Z,8.47
2022-10-10T06:57:13.250Z,8.61
2022-10-10T07:02:15.879Z,8.71
2022-10-10T07:07:19.871Z,8.81
2022-10-10T07:12:22.546Z,8.91
2022-10-10T07:17:25.372Z,9.07
2022-10-10T07:22:29.379Z,9.19
2022-10-10T07:27:31.989Z,9.28
2022-10-10T07:32:34.635Z,9.35
2022-10-10T07:37:38.899Z,9.40
2022-10-10T07:42:41.721Z,9.47
2022-10-10T07:47:44.341Z,9.53
2022-10-10T07:52:48.481Z,9.59
2022-10-10T07:57:53.432Z,9.66
2022-10-10T08:02:56.353Z,9.73
2022-10-10T08:08:00.337Z,9.77
2022-10-10T08:13:03.118Z,9.93
2022-10-10T08:18:06.052Z,10.12
2022-10-10T08:23:10.299Z,10.31
2022-10-10T08:28:12.945Z,10.51
2022-10-10T08:33:15.807Z,10.70
2022-10-10T08:38:20.143Z,10.84
2022-10-10T08:43:28.142Z,11.01
2022-10-10T08:48:31.883Z,11.21
2022-10-10T08:53:39.676Z,11.46
2022-10-10T08:58:46.501Z,11.65
2022-10-10T09:03:50.385Z,11.77
2022-10-10T09:09:01.292Z,11.93
2022-10-10T09:14:12.938Z,12.26
2022-10-10T09:19:24.636Z,12.60
2022-10-10T09:24:33.174Z,12.86
2022-10-10T09:29:40.907Z,13.16
2022-10-10T09:34:47.137Z,13.27
2022-10-10T09:39:53.863Z,13.29
2022-10-10T09:44:56.527Z,13.35
2022-10-10T09:49:59.901Z,13.46
2022-10-10T09:55:07.789Z,13.54
2022-10-10T10:00:26.842Z,13.69
2022-10-10T10:05:30.644Z,13.86
2022-10-10T10:10:37.208Z,14.03
2022-10-10T10:15:39.904Z,14.20
2022-10-10T10:20:44.301Z,14.30
2022-10-10T10:25:58.007Z,14.41
2022-10-10T10:31:00.825Z,14.55
2022-10-10T10:36:12.241Z,14.62
2022-10-10T10:41:25.227Z,14.71
2022-10-10T10:46:35.074Z,14.85
2022-10-10T10:51:47.523Z,15.15
2022-10-10T10:56:58.972Z,15.40
2022-10-10T11:02:54.159Z,15.61
2022-10-10T11:07:57.316Z,16.11
2022-10-10T11:13:08.108Z,17.39
2022-10-10T11:18:13.721Z,21.21
2022-10-10T11:23:19.463Z,24.17
2022-10-10T11:28:26.474Z,26.92
2022-10-10T11:33:32.050Z,32.80
2022-10-10T11:38:39.185Z,32.83
2022-10-10T11:43:47.759Z,27.41
2022-10-10T11:48:56.351Z,23.57
2022-10-10T11:54:02.603Z,22.11
2022-10-10T11:59:13.211Z,20.75
2022-10-10T12:04:15.850Z,20.31
2022-10-10T12:09:22.924Z,21.15
2022-10-10T12:14:29.654Z,25.93
2022-10-10T12:19:32.538Z,31.21
2022-10-10T12:24:40.956Z,32.73
2022-10-10T12:29:51.358Z,30.77
2022-10-10T12:35:00.090Z,28.25
2022-10-10T12:40:21.608Z,27.01
2022-10-10T12:45:59.745Z,25.92
2022-10-10T12:51:03.320Z,25.70
2022-10-10T12:56:07.221Z,25.42
2022-10-10T13:01:27.225Z,24.96
2022-10-10T13:06:35.686Z,24.25
2022-10-10T13:11:56.081Z,22.40
2022-10-10T13:17:00.075Z,21.78
2022-10-10T13:22:02.755Z,21.21
2022-10-10T13:27:05.401Z,20.80
2022-10-10T13:32:12.690Z,20.23
2022-10-10T13:37:18.222Z,20.17
2022-10-10T13:42:33.010Z,20.28
2022-10-10T13:47:56.890Z,20.43
2022-10-10T13:53:25.627Z,20.34
2022-10-10T13:58:29.130Z,19.82
2022-10-10T14:03:34.271Z,19.29
2022-10-10T14:08:36.904Z,18.93
2022-10-10T14:13:39.934Z,18.69
2022-10-10T14:18:44.919Z,18.50
2022-10-10T14:23:47.555Z,18.49
2022-10-10T14:28:50.527Z,18.48
2022-10-10T14:33:54.863Z,18.43
2022-10-10T14:38:57.473Z,18.39
2022-10-10T14:44:00.092Z,18.43
2022-10-10T14:49:04.347Z,18.52
2022-10-10T14:54:11.789Z,18.76
2022-10-10T14:59:19.096Z,19.20
2022-10-10T15:04:43.144Z,19.62
2022-10-10T15:10:17.601Z,20.18
2022-10-10T15:15:11.249Z,22.64
2022-10-10T15:20:15.519Z,22.37
2022-10-10T15:25:18.556Z,21.30
2022-10-10T15:30:21.330Z,22.05
2022-10-10T15:35:26.369Z,21.93
2022-10-10T15:40:29.306Z,20.73
2022-10-10T15:45:54.333Z,19.49
2022-10-10T15:50:56.183Z,19.58
2022-10-10T15:55:58.853Z,18.84
2022-10-10T16:01:02.248Z,18.04
2022-10-10T16:06:07.294Z,17.45
2022-10-10T16:11:11.604Z,17.06
2022-10-10T16:16:14.307Z,16.78
2022-10-10T16:21:20.062Z,16.60
2022-10-10T16:26:26.314Z,16.41
2022-10-10T16:31:29.682Z,16.27
2022-10-10T16:36:35.514Z,16.14
2022-10-10T16:41:53.429Z,16.06
2022-10-10T16:46:56.069Z,15.95
2022-10-10T16:52:00.306Z,15.88
2022-10-10T16:57:03.018Z,15.80
2022-10-10T17:02:05.698Z,15.77
2022-10-10T17:07:38.675Z,15.71
2022-10-10T17:12:41.356Z,15.62
2022-10-10T17:17:44.024Z,15.55
2022-10-10T17:22:48.065Z,15.53
2022-10-10T17:27:50.847Z,15.52
2022-10-10T17:32:53.644Z,15.51
2022-10-10T17:37:57.583Z,15.51
2022-10-10T17:43:04.428Z,15.51
2022-10-10T17:48:09.246Z,15.47
2022-10-10T17:53:13.176Z,15.43
2022-10-10T17:58:16.015Z,15.41
2022-10-10T18:03:19.852Z,15.40
2022-10-10T18:08:23.889Z,15.37
2022-10-10T18:13:26.730Z,15.35
2022-10-10T18:18:29.423Z,15.31
2022-10-10T18:23:33.529Z,15.28
2022-10-10T18:28:38.933Z,15.22
2022-10-10T18:33:41.937Z,15.19
2022-10-10T18:38:46.563Z,15.21
2022-10-10T18:43:49.988Z,15.16
2022-10-10T18:48:54.272Z,15.07
2022-10-10T18:54:02.035Z,15.01
2022-10-10T18:59:06.705Z,14.97
2022-10-10T19:04:10.967Z,14.96
2022-10-10T19:09:17.154Z,14.94
2022-10-10T19:14:20.342Z,14.93
2022-10-10T19:19:23.783Z,14.86
2022-10-10T19:24:27.795Z,14.85
2022-10-10T19:29:30.751Z,14.81
2022-10-10T19:34:33.426Z,14.71
2022-10-10T19:39:37.843Z,14.66
2022-10-10T19:44:40.470Z,14.59
2022-10-10T19:49:43.204Z,14.56
2022-10-10T19:54:47.383Z,14.48
2022-10-10T19:59:50.044Z,14.40
2022-10-10T20:04:52.713Z,14.31
2022-10-10T20:09:56.717Z,14.22
2022-10-10T20:15:00.058Z,14.15
2022-10-10T20:20:03.102Z,14.01
2022-10-10T20:25:08.222Z,13.89
2022-10-10T20:30:11.880Z,13.81
2022-10-10T20:35:18.514Z,13.80
2022-10-10T20:40:22.557Z,13.84
2022-10-10T20:45:25.246Z,13.79
2022-10-10T20:50:27.902Z,13.76
2022-10-10T20:55:32.014Z,13.77
2022-10-10T21:00:34.715Z,13.76
2022-10-10T21:05:37.512Z,13.66
2022-10-10T21:10:42.964Z,13.65
2022-10-10T21:15:45.597Z,13.60
2022-10-10T21:20:58.898Z,13.60
2022-10-10T21:26:06.876Z,13.48
2022-10-10T21:31:14.656Z,13.40
2022-10-10T21:36:18.596Z,13.35
2022-10-10T21:41:23.446Z,13.31
2022-10-10T21:46:34.787Z,13.35
2022-10-10T21:51:40.474Z,13.40
2022-10-10T21:56:44.567Z,13.43
2022-10-10T22:01:47.169Z,13.35
2022-10-10T22:06:49.817Z,13.29
2022-10-10T22:11:53.912Z,13.21
2022-10-10T22:16:56.503Z,13.34
2022-10-10T22:21:59.135Z,13.47
2022-10-10T22:27:03.168Z,13.55
2022-10-10T22:32:06.040Z,13.62
2022-10-10T22:37:08.670Z,13.67
2022-10-10T22:42:12.623Z,13.72
2022-10-10T22:47:15.241Z,13.79
2022-10-10T22:52:17.893Z,13.84
2022-10-10T22:57:21.841Z,13.91
2022-10-10T23:02:24.468Z,13.93
2022-10-10T23:07:27.418Z,13.83
2022-10-10T23:12:31.402Z,13.80
2022-10-10T23:17:34.756Z,13.81
2022-10-10T23:22:37.546Z,13.80
2022-10-10T23:27:41.551Z,13.78
2022-10-10T23:32:44.169Z,13.79
2022-10-10T23:37:46.980Z,13.82
2022-10-10T23:42:51.110Z,13.86
2022-10-10T23:47:53.763Z,13.90
2022-10-10T23:52:56.419Z,13.91
2022-10-10T23:58:02.798Z,13.88
